createdAt,value
2023-05-08T00:01:33.769Z,6.86
2023-05-08T00:04:00.930Z,6.87
2023-05-08T00:06:28.240Z,6.88
2023-05-08T00:08:55.532Z,6.90
2023-05-08T00:11:22.961Z,6.95
2023-05-08T00:13:50.161Z,6.99
2023-05-08T00:16:17.401Z,7.02
2023-05-08T00:18:44.603Z,7.02
2023-05-08T00:21:11.863Z,7.02
2023-05-08T00:23:38.905Z,7.02
2023-05-08T00:26:06.497Z,6.99
2023-05-08T00:28:33.724Z,6.98
2023-05-08T00:31:01.821Z,6.99
2023-05-08T00:33:29.050Z,6.97
2023-05-08T00:36:02.780Z,6.95
2023-05-08T00:38:31.123Z,6.92
2023-05-08T00:40:58.317Z,6.88
2023-05-08T00:43:27.784Z,6.85
2023-05-08T00:45:55.784Z,6.83
2023-05-08T00:48:23.409Z,6.80
2023-05-08T00:50:51.583Z,6.80
2023-05-08T00:53:21.924Z,6.81
2023-05-08T00:55:50.771Z,6.81
2023-05-08T00:58:20.305Z,6.79
2023-05-08T01:00:47.258Z,6.76
2023-05-08T01:03:14.780Z,6.72
2023-05-08T01:05:43.100Z,6.69
2023-05-08T01:08:10.236Z,6.65
2023-05-08T01:10:53.693Z,6.62
2023-05-08T01:13:58.608Z,6.57
2023-05-08T01:16:45.415Z,6.51
2023-05-08T01:19:58.479Z,6.46
2023-05-08T01:23:07.271Z,6.38
2023-05-08T01:25:52.955Z,6.31
2023-05-08T01:28:45.606Z,6.25
2023-05-08T01:31:15.746Z,6.17
2023-05-08T01:34:05.962Z,6.12
2023-05-08T01:37:02.835Z,6.04
2023-05-08T01:39:43.635Z,5.98
2023-05-08T01:42:17.983Z,5.95
2023-05-08T01:44:47.151Z,5.93
2023-05-08T01:47:14.405Z,5.90
2023-05-08T01:49:47.678Z,5.88
2023-05-08T01:52:18.368Z,5.86
2023-05-08T01:54:56.028Z,5.84
2023-05-08T01:57:24.097Z,5.83
2023-05-08T01:59:51.537Z,5.84
2023-05-08T02:02:18.635Z,5.84
2023-05-08T02:04:47.487Z,5.86
2023-05-08T02:07:15.047Z,5.85
2023-05-08T02:09:42.898Z,5.88
2023-05-08T02:12:10.173Z,5.89
2023-05-08T02:14:37.491Z,5.90
2023-05-08T02:17:05.877Z,5.92
2023-05-08T02:19:33.581Z,5.95
2023-05-08T02:22:00.736Z,5.97
2023-05-08T02:24:27.770Z,6.00
2023-05-08T02:26:55.365Z,6.02
2023-05-08T02:29:22.504Z,6.04
2023-05-08T02:31:50.141Z,6.05
2023-05-08T02:34:17.307Z,6.08
2023-05-08T02:36:44.431Z,6.11
2023-05-08T02:39:13.629Z,6.15
2023-05-08T02:41:40.679Z,6.19
2023-05-08T02:44:08.033Z,6.22
2023-05-08T02:46:41.118Z,6.26
2023-05-08T02:49:12.890Z,6.30
2023-05-08T02:51:43.106Z,6.34
2023-05-08T02:54:17.745Z,6.38
2023-05-08T02:56:55.440Z,6.42
2023-05-08T02:59:36.951Z,6.46
2023-05-08T03:02:25.761Z,6.50
2023-05-08T03:04:55.198Z,6.55
2023-05-08T03:07:23.783Z,6.60
2023-05-08T03:09:55.201Z,6.64
2023-05-08T03:12:23.961Z,6.69
2023-05-08T03:15:06.410Z,6.73
2023-05-08T03:17:35.001Z,6.77
2023-05-08T03:20:05.129Z,6.82
2023-05-08T03:22:32.579Z,6.87
2023-05-08T03:25:00.629Z,6.93
2023-05-08T03:27:28.599Z,6.99
2023-05-08T03:29:56.383Z,7.05
2023-05-08T03:32:27.577Z,7.13
2023-05-08T03:34:55.378Z,7.20
2023-05-08T03:37:22.481Z,7.25
2023-05-08T03:39:51.615Z,7.29
2023-05-08T03:42:21.332Z,7.36
2023-05-08T03:44:52.830Z,7.43
2023-05-08T03:47:23.755Z,7.49
2023-05-08T03:49:51.095Z,7.53
2023-05-08T03:52:18.461Z,7.58
2023-05-08T03:54:46.298Z,7.64
2023-05-08T03:57:13.853Z,7.68
2023-05-08T03:59:54.537Z,7.69
2023-05-08T04:02:40.143Z,7.68
2023-05-08T04:05:26.411Z,7.69
2023-05-08T04:11:55.264Z,7.77
2023-05-08T04:14:25.053Z,7.80
2023-05-08T04:16:53.050Z,7.83
2023-05-08T04:19:30.534Z,7.84
2023-05-08T04:22:05.226Z,7.85
2023-05-08T04:24:32.442Z,7.85
2023-05-08T04:26:59.738Z,7.85
2023-05-08T04:29:27.291Z,7.86
2023-05-08T04:31:54.609Z,7.89
2023-05-08T04:34:22.008Z,7.92
2023-05-08T04:36:49.387Z,7.95
2023-05-08T04:39:18.467Z,8.00
2023-05-08T04:41:45.856Z,8.04
2023-05-08T04:44:13.604Z,8.10
2023-05-08T04:46:40.830Z,8.12
2023-05-08T04:49:08.219Z,8.15
2023-05-08T04:51:36.079Z,8.18
2023-05-08T04:54:03.958Z,8.23
2023-05-08T04:56:31.267Z,8.31
2023-05-08T04:58:58.419Z,8.38
2023-05-08T05:01:25.946Z,8.45
2023-05-08T05:03:53.369Z,8.53
2023-05-08T05:06:20.800Z,8.60
2023-05-08T05:08:48.100Z,8.66
2023-05-08T05:11:15.904Z,8.69
2023-05-08T05:13:42.962Z,8.70
2023-05-08T05:16:10.335Z,8.70
2023-05-08T05:18:37.765Z,8.74
2023-05-08T05:21:04.915Z,8.81
2023-05-08T05:23:32.173Z,8.92
2023-05-08T05:26:00.447Z,9.01
2023-05-08T05:28:28.408Z,9.13
2023-05-08T05:30:56.072Z,9.21
2023-05-08T05:33:23.220Z,9.29
2023-05-08T05:35:51.088Z,9.42
2023-05-08T05:38:18.659Z,9.60
2023-05-08T05:40:45.895Z,9.80
2023-05-08T05:43:13.255Z,10.02
2023-05-08T05:45:40.504Z,10.25
2023-05-08T05:48:07.995Z,10.62
2023-05-08T05:50:35.315Z,11.02
2023-05-08T05:53:02.465Z,11.42
2023-05-08T05:55:29.630Z,11.81
2023-05-08T05:57:56.917Z,12.11
2023-05-08T06:00:24.335Z,12.33
2023-05-08T06:02:53.228Z,12.48
2023-05-08T06:05:21.194Z,12.53
2023-05-08T06:07:48.368Z,12.66
2023-05-08T06:10:15.502Z,12.71
2023-05-08T06:12:42.679Z,12.59
2023-05-08T06:15:11.375Z,12.28
2023-05-08T06:17:38.966Z,11.92
2023-05-08T06:20:07.101Z,11.61
2023-05-08T06:22:34.598Z,11.42
2023-05-08T06:25:01.688Z,11.35
2023-05-08T06:27:28.812Z,11.42
2023-05-08T06:29:55.892Z,11.65
2023-05-08T06:32:22.998Z,12.06
2023-05-08T06:34:50.541Z,12.70
2023-05-08T06:37:17.720Z,13.36
2023-05-08T06:39:44.872Z,13.84
2023-05-08T06:42:12.365Z,14.07
2023-05-08T06:44:40.958Z,14.11
2023-05-08T06:47:08.585Z,14.07
2023-05-08T06:49:38.794Z,14.11
2023-05-08T06:52:05.945Z,14.20
2023-05-08T06:54:33.200Z,14.17
2023-05-08T06:57:00.329Z,14.12
2023-05-08T06:59:27.500Z,14.24
2023-05-08T07:01:54.675Z,14.65
2023-05-08T07:04:22.273Z,15.02
2023-05-08T07:06:49.668Z,15.16
2023-05-08T07:09:19.188Z,15.15
2023-05-08T07:11:46.202Z,15.15
2023-05-08T07:14:13.555Z,15.17
2023-05-08T07:16:40.637Z,15.24
2023-05-08T07:19:07.776Z,15.29
2023-05-08T07:21:35.179Z,15.32
2023-05-08T07:24:02.633Z,15.37
2023-05-08T07:26:29.678Z,15.32
2023-05-08T07:28:56.717Z,15.37
2023-05-08T07:31:23.870Z,15.37
2023-05-08T07:33:51.083Z,15.23
2023-05-08T07:36:18.363Z,15.19
2023-05-08T07:38:45.889Z,15.11
2023-05-08T07:41:13.063Z,15.03
2023-05-08T07:43:40.291Z,14.94
2023-05-08T07:46:07.467Z,14.81
2023-05-08T07:48:34.712Z,14.70
2023-05-08T07:51:01.793Z,14.59
2023-05-08T07:53:28.988Z,14.43
2023-05-08T07:55:56.140Z,14.26
2023-05-08T07:58:23.909Z,14.04
2023-05-08T08:00:51.580Z,13.96
2023-05-08T08:03:19.279Z,13.98
2023-05-08T08:05:46.710Z,14.01
2023-05-08T08:08:13.691Z,14.00
2023-05-08T08:10:40.884Z,13.98
2023-05-08T08:13:08.213Z,13.94
2023-05-08T08:15:35.497Z,13.88
2023-05-08T08:18:02.666Z,13.77
2023-05-08T08:20:29.934Z,13.72
2023-05-08T08:22:57.048Z,13.67
2023-05-08T08:25:24.689Z,13.63
2023-05-08T08:27:51.935Z,13.63
2023-05-08T08:30:19.098Z,13.61
2023-05-08T08:32:46.720Z,13.66
2023-05-08T08:35:14.528Z,13.73
2023-05-08T08:37:42.203Z,13.78
2023-05-08T08:40:09.693Z,13.82
2023-05-08T08:42:36.737Z,13.83
2023-05-08T08:45:04.272Z,13.79
2023-05-08T08:47:37.627Z,13.79
2023-05-08T08:50:05.646Z,13.79
2023-05-08T08:52:48.688Z,13.83
2023-05-08T08:55:17.034Z,13.92
2023-05-08T08:57:54.277Z,14.05
2023-05-08T09:00:22.402Z,14.18
2023-05-08T09:02:49.670Z,14.31
2023-05-08T09:05:17.135Z,14.43
2023-05-08T09:07:44.359Z,14.54
2023-05-08T09:10:15.968Z,14.76
2023-05-08T09:12:45.319Z,15.04
2023-05-08T09:15:12.881Z,15.25
2023-05-08T09:17:40.139Z,15.56
2023-05-08T09:20:08.696Z,15.77
2023-05-08T09:22:39.202Z,15.88
2023-05-08T09:25:07.234Z,15.96
2023-05-08T09:27:36.737Z,16.00
2023-05-08T09:30:08.874Z,16.26
2023-05-08T09:32:40.201Z,16.41
2023-05-08T09:35:08.316Z,16.57
2023-05-08T09:37:38.620Z,16.76
2023-05-08T09:40:15.992Z,16.69
2023-05-08T09:42:43.360Z,16.55
2023-05-08T09:45:11.579Z,16.60
2023-05-08T09:47:39.901Z,16.86
2023-05-08T09:50:09.051Z,17.06
2023-05-08T09:52:37.450Z,17.04
2023-05-08T09:55:11.201Z,17.11
2023-05-08T09:57:39.714Z,17.17
2023-05-08T10:00:11.970Z,17.14
2023-05-08T10:02:43.313Z,17.20
2023-05-08T10:05:33.550Z,17.31
2023-05-08T10:08:17.941Z,17.45
2023-05-08T10:10:45.161Z,17.40
2023-05-08T10:13:12.239Z,17.36
2023-05-08T10:15:40.004Z,17.30
2023-05-08T10:18:07.988Z,17.24
2023-05-08T10:20:37.429Z,17.29
2023-05-08T10:23:04.627Z,17.58
2023-05-08T10:25:33.863Z,17.69
2023-05-08T10:28:14.002Z,17.60
2023-05-08T10:30:44.720Z,17.51
2023-05-08T10:33:11.896Z,17.40
2023-05-08T10:35:39.023Z,17.33
2023-05-08T10:38:06.167Z,17.50
2023-05-08T10:40:33.424Z,17.72
2023-05-08T10:43:00.569Z,17.91
2023-05-08T10:45:27.721Z,17.91
2023-05-08T10:47:59.998Z,17.71
2023-05-08T10:50:34.976Z,17.39
2023-05-08T10:53:02.326Z,17.00
2023-05-08T10:55:33.762Z,16.60
2023-05-08T10:58:07.378Z,16.25
2023-05-08T11:00:59.987Z,15.97
2023-05-08T11:03:32.105Z,15.74
2023-05-08T11:06:00.853Z,15.70
2023-05-08T11:08:28.808Z,15.74
2023-05-08T11:10:59.630Z,15.78
2023-05-08T11:13:28.566Z,15.75
2023-05-08T11:15:56.022Z,15.69
2023-05-08T11:18:26.323Z,15.62
2023-05-08T11:21:06.469Z,15.51
2023-05-08T11:23:34.225Z,15.49
2023-05-08T11:26:14.493Z,15.49
2023-05-08T11:28:58.477Z,15.37
2023-05-08T11:31:25.796Z,15.38
2023-05-08T11:33:52.934Z,15.43
2023-05-08T11:36:25.256Z,15.46
2023-05-08T11:39:16.463Z,15.45
2023-05-08T11:41:43.513Z,15.32
2023-05-08T11:44:17.183Z,15.23
2023-05-08T11:46:54.545Z,15.10
2023-05-08T11:49:29.029Z,15.03
2023-05-08T11:51:58.619Z,14.95
2023-05-08T11:54:26.044Z,14.90
2023-05-08T11:56:54.929Z,14.90
2023-05-08T11:59:22.410Z,14.95
2023-05-08T12:02:07.029Z,15.00
2023-05-08T12:04:48.899Z,15.02
2023-05-08T12:07:16.753Z,15.08
2023-05-08T12:09:43.797Z,15.08
2023-05-08T12:12:10.923Z,15.09
2023-05-08T12:14:38.084Z,15.13
2023-05-08T12:17:05.193Z,15.18
2023-05-08T12:19:32.402Z,15.29
2023-05-08T12:21:59.659Z,15.40
2023-05-08T12:24:27.083Z,15.41
2023-05-08T12:26:56.096Z,15.44
2023-05-08T12:29:26.695Z,15.61
2023-05-08T12:31:53.847Z,15.79
2023-05-08T12:34:21.134Z,15.83
2023-05-08T12:36:48.776Z,15.81
2023-05-08T12:39:17.541Z,15.77
2023-05-08T12:41:51.872Z,15.73
2023-05-08T12:44:25.391Z,15.72
2023-05-08T12:46:53.799Z,15.70
2023-05-08T12:49:30.979Z,15.65
2023-05-08T12:52:05.303Z,15.63
2023-05-08T12:54:48.176Z,15.64
2023-05-08T12:57:19.434Z,15.64
2023-05-08T12:59:46.763Z,15.65
2023-05-08T13:02:18.074Z,15.66
2023-05-08T13:04:45.748Z,15.66
2023-05-08T13:07:13.081Z,15.64
2023-05-08T13:09:40.617Z,15.71
2023-05-08T13:12:07.925Z,15.78
2023-05-08T13:14:34.990Z,15.74
2023-05-08T13:17:02.155Z,15.67
2023-05-08T13:19:29.331Z,15.61
2023-05-08T13:21:56.457Z,15.52
2023-05-08T13:24:23.803Z,15.40
2023-05-08T13:26:50.950Z,15.30
2023-05-08T13:29:18.130Z,15.29
2023-05-08T13:31:45.283Z,15.31
2023-05-08T13:34:12.295Z,15.30
2023-05-08T13:36:39.511Z,15.25
2023-05-08T13:39:06.695Z,15.26
2023-05-08T13:41:33.840Z,15.26
2023-05-08T13:44:01.016Z,15.21
2023-05-08T13:46:28.061Z,15.16
2023-05-08T13:48:55.286Z,15.10
2023-05-08T13:51:22.332Z,15.04
2023-05-08T13:53:49.385Z,15.01
2023-05-08T13:56:16.507Z,14.98
2023-05-08T13:58:43.635Z,14.95
2023-05-08T14:01:25.119Z,14.93
2023-05-08T14:03:53.854Z,14.89
2023-05-08T14:06:21.248Z,14.86
2023-05-08T14:08:50.991Z,14.82
2023-05-08T14:11:19.326Z,14.80
2023-05-08T14:13:46.584Z,14.77
2023-05-08T14:16:15.304Z,14.72
2023-05-08T14:18:42.501Z,14.66
2023-05-08T14:21:09.503Z,14.58
2023-05-08T14:23:37.919Z,14.53
2023-05-08T14:26:05.688Z,14.50
2023-05-08T14:28:33.494Z,14.48
2023-05-08T14:31:00.666Z,14.44
2023-05-08T14:33:27.856Z,14.42
2023-05-08T14:35:55.009Z,14.44
2023-05-08T14:38:22.043Z,14.44
2023-05-08T14:40:54.530Z,14.40
2023-05-08T14:43:22.139Z,14.34
2023-05-08T14:45:49.533Z,14.29
2023-05-08T14:48:16.693Z,14.27
2023-05-08T14:50:43.945Z,14.29
2023-05-08T14:53:11.401Z,14.29
2023-05-08T14:55:38.815Z,14.27
2023-05-08T14:58:06.013Z,14.19
2023-05-08T15:00:33.157Z,14.15
2023-05-08T15:03:00.480Z,14.12
2023-05-08T15:05:27.769Z,14.13
2023-05-08T15:07:55.069Z,14.16
2023-05-08T15:10:22.276Z,14.17
2023-05-08T15:12:49.567Z,14.15
2023-05-08T15:15:16.996Z,14.11
2023-05-08T15:17:44.262Z,14.05
2023-05-08T15:20:11.689Z,13.95
2023-05-08T15:22:38.920Z,13.86
2023-05-08T15:25:06.813Z,13.77
2023-05-08T15:27:33.964Z,13.68
2023-05-08T15:30:01.060Z,13.61
2023-05-08T15:32:28.264Z,13.55
2023-05-08T15:34:56.325Z,13.50
2023-05-08T15:37:23.518Z,13.41
2023-05-08T15:39:50.660Z,13.30
2023-05-08T15:42:17.702Z,13.20
2023-05-08T15:47:14.975Z,12.99
2023-05-08T15:49:42.098Z,12.91
2023-05-08T15:52:09.253Z,12.84
2023-05-08T15:54:36.392Z,12.78
2023-05-08T15:57:03.547Z,12.71
2023-05-08T15:59:31.052Z,12.64
2023-05-08T16:01:58.166Z,12.60
2023-05-08T16:04:25.194Z,12.56
2023-05-08T16:06:52.266Z,12.53
2023-05-08T16:09:19.300Z,12.49
2023-05-08T16:11:48.023Z,12.44
2023-05-08T16:14:16.979Z,12.38
2023-05-08T16:16:44.227Z,12.34
2023-05-08T16:19:11.384Z,12.29
2023-05-08T16:21:38.526Z,12.25
2023-05-08T16:24:06.800Z,12.19
2023-05-08T16:26:33.852Z,12.14
2023-05-08T16:29:01.739Z,12.09
2023-05-08T16:31:29.411Z,12.06
2023-05-08T16:33:56.501Z,12.02
2023-05-08T16:36:23.694Z,11.97
2023-05-08T16:38:51.088Z,11.92
2023-05-08T16:41:18.231Z,11.88
2023-05-08T16:43:45.364Z,11.86
2023-05-08T16:46:12.719Z,11.84
2023-05-08T16:48:39.844Z,11.82
2023-05-08T16:51:08.225Z,11.79
2023-05-08T16:53:35.952Z,11.77
2023-05-08T16:56:03.097Z,11.73
2023-05-08T16:58:30.281Z,11.68
2023-05-08T17:00:57.402Z,11.65
2023-05-08T17:03:24.742Z,11.61
2023-05-08T17:05:52.024Z,11.56
2023-05-08T17:08:19.189Z,11.52
2023-05-08T17:10:46.342Z,11.49
2023-05-08T17:13:13.461Z,11.44
2023-05-08T17:15:40.650Z,11.40
2023-05-08T17:18:07.904Z,11.36
2023-05-08T17:20:42.679Z,11.33
2023-05-08T17:23:09.870Z,11.29
2023-05-08T17:25:37.071Z,11.27
2023-05-08T17:28:05.134Z,11.25
2023-05-08T17:30:32.143Z,11.23
2023-05-08T17:32:59.360Z,11.21
2023-05-08T17:35:26.707Z,11.17
2023-05-08T17:37:53.934Z,11.16
2023-05-08T17:40:22.171Z,11.14
2023-05-08T17:42:49.335Z,11.12
2023-05-08T17:45:16.484Z,11.09
2023-05-08T17:47:43.560Z,11.06
2023-05-08T17:50:12.193Z,11.04
2023-05-08T17:52:39.457Z,11.03
2023-05-08T17:55:07.232Z,11.02
2023-05-08T17:57:34.302Z,11.00
2023-05-08T18:00:01.319Z,10.99
2023-05-08T18:02:28.344Z,10.96
2023-05-08T18:04:55.605Z,10.94
2023-05-08T18:07:22.770Z,10.92
2023-05-08T18:09:49.864Z,10.90
2023-05-08T18:12:17.086Z,10.88
2023-05-08T18:14:45.208Z,10.86
2023-05-08T18:17:14.969Z,10.84
2023-05-08T18:19:42.211Z,10.82
2023-05-08T18:22:09.248Z,10.80
2023-05-08T18:24:36.297Z,10.79
2023-05-08T18:27:03.557Z,10.77
2023-05-08T18:29:31.047Z,10.76
2023-05-08T18:31:58.159Z,10.75
2023-05-08T18:34:26.309Z,10.73
2023-05-08T18:36:54.956Z,10.72
2023-05-08T18:39:23.497Z,10.70
2023-05-08T18:41:50.728Z,10.69
2023-05-08T18:44:18.067Z,10.69
2023-05-08T18:46:45.326Z,10.67
2023-05-08T18:49:12.514Z,10.65
2023-05-08T18:51:39.497Z,10.63
2023-05-08T18:54:06.602Z,10.62
2023-05-08T18:56:34.569Z,10.60
2023-05-08T18:59:01.749Z,10.58
2023-05-08T19:01:29.186Z,10.56
2023-05-08T19:03:56.893Z,10.55
2023-05-08T19:06:23.991Z,10.54
2023-05-08T19:08:52.277Z,10.53
2023-05-08T19:11:19.517Z,10.52
2023-05-08T19:13:46.980Z,10.49
2023-05-08T19:16:14.130Z,10.47
2023-05-08T19:18:41.680Z,10.45
2023-05-08T19:21:08.741Z,10.43
2023-05-08T19:23:36.094Z,10.40
2023-05-08T19:26:03.364Z,10.39
2023-05-08T19:28:30.404Z,10.37
2023-05-08T19:30:57.442Z,10.34
2023-05-08T19:33:24.595Z,10.32
2023-05-08T19:35:51.736Z,10.30
2023-05-08T19:38:19.332Z,10.26
2023-05-08T19:40:56.458Z,10.24
2023-05-08T19:43:25.951Z,10.22
2023-05-08T19:45:53.206Z,10.19
2023-05-08T19:48:20.579Z,10.16
2023-05-08T19:50:47.849Z,10.13
2023-05-08T19:53:15.050Z,10.10
2023-05-08T19:55:42.147Z,10.08
2023-05-08T19:58:09.185Z,10.06
2023-05-08T20:00:36.340Z,10.01
2023-05-08T20:03:03.413Z,9.97
2023-05-08T20:05:30.971Z,9.93
2023-05-08T20:07:58.101Z,9.89
2023-05-08T20:10:25.287Z,9.85
2023-05-08T20:12:52.500Z,9.81
2023-05-08T20:15:19.849Z,9.79
2023-05-08T20:17:46.886Z,9.76
2023-05-08T20:20:14.281Z,9.73
2023-05-08T20:22:41.760Z,9.70
2023-05-08T20:25:09.074Z,9.68
2023-05-08T20:27:36.223Z,9.65
2023-05-08T20:30:04.785Z,9.62
2023-05-08T20:32:31.947Z,9.60
2023-05-08T20:34:59.202Z,9.58
2023-05-08T20:37:26.453Z,9.55
2023-05-08T20:39:53.606Z,9.52
2023-05-08T20:42:21.074Z,9.48
2023-05-08T20:44:48.417Z,9.45
2023-05-08T20:47:15.569Z,9.44
2023-05-08T20:49:42.694Z,9.41
2023-05-08T20:52:09.881Z,9.39
2023-05-08T20:54:37.000Z,9.39
2023-05-08T20:57:04.266Z,9.37
2023-05-08T20:59:31.417Z,9.35
2023-05-08T21:01:58.448Z,9.33
2023-05-08T21:04:25.543Z,9.33
2023-05-08T21:06:53.107Z,9.32
2023-05-08T21:09:20.238Z,9.31
2023-05-08T21:11:47.599Z,9.31
2023-05-08T21:14:14.672Z,9.32
2023-05-08T21:16:41.846Z,9.31
2023-05-08T21:19:10.180Z,9.30
2023-05-08T21:21:37.425Z,9.27
2023-05-08T21:24:04.607Z,9.26
2023-05-08T21:26:32.049Z,9.25
2023-05-08T21:29:00.429Z,9.25
2023-05-08T21:31:29.070Z,9.24
2023-05-08T21:33:56.525Z,9.23
2023-05-08T21:36:23.837Z,9.21
2023-05-08T21:38:52.335Z,9.19
2023-05-08T21:41:19.546Z,9.17
2023-05-08T21:43:46.693Z,9.16
2023-05-08T21:46:13.778Z,9.12
2023-05-08T21:48:40.841Z,9.10
2023-05-08T21:51:08.315Z,9.09
2023-05-08T21:53:35.497Z,9.07
2023-05-08T21:56:02.488Z,9.06
2023-05-08T21:58:29.810Z,9.03
2023-05-08T22:00:58.516Z,9.01
2023-05-08T22:03:26.166Z,8.99
2023-05-08T22:05:53.242Z,8.96
2023-05-08T22:08:20.393Z,8.93
2023-05-08T22:10:47.697Z,8.90
2023-05-08T22:13:15.163Z,8.87
2023-05-08T22:15:43.024Z,8.85
2023-05-08T22:18:10.186Z,8.80
2023-05-08T22:20:38.347Z,8.76
2023-05-08T22:23:06.022Z,8.73
2023-05-08T22:25:33.175Z,8.68
2023-05-08T22:28:00.287Z,8.64
2023-05-08T22:30:27.474Z,8.59
2023-05-08T22:32:56.182Z,8.53
2023-05-08T22:35:24.643Z,8.46
2023-05-08T22:37:52.569Z,8.42
2023-05-08T22:40:21.642Z,8.37
2023-05-08T22:42:51.571Z,8.35
2023-05-08T22:45:18.873Z,8.30
2023-05-08T22:47:45.947Z,8.24
2023-05-08T22:50:13.294Z,8.19
2023-05-08T22:52:40.365Z,8.14
2023-05-08T22:55:08.383Z,8.11
2023-05-08T22:57:35.542Z,8.07
2023-05-08T23:00:02.693Z,8.04
2023-05-08T23:02:33.556Z,8.01
2023-05-08T23:05:01.040Z,7.96
2023-05-08T23:07:28.844Z,7.92
2023-05-08T23:09:55.993Z,7.88
2023-05-08T23:12:23.169Z,7.83
2023-05-08T23:14:50.191Z,7.79
2023-05-08T23:17:17.328Z,7.74
2023-05-08T23:19:45.803Z,7.71
2023-05-08T23:22:12.893Z,7.70
2023-05-08T23:24:40.010Z,7.69
2023-05-08T23:27:07.025Z,7.69
2023-05-08T23:29:34.039Z,7.68
2023-05-08T23:32:01.395Z,7.67
2023-05-08T23:34:28.553Z,7.66
2023-05-08T23:36:55.903Z,7.65
2023-05-08T23:39:23.015Z,7.65
2023-05-08T23:41:50.167Z,7.63
2023-05-08T23:44:17.785Z,7.62
2023-05-08T23:46:45.268Z,7.59
2023-05-08T23:49:12.613Z,7.56
2023-05-08T23:51:39.681Z,7.54
2023-05-08T23:54:07.078Z,7.53
2023-05-08T23:56:34.201Z,7.50
2023-05-08T23:59:01.552Z,7.47
